createdAt,value
2022-12-04T01:10:11.428Z,18
2022-12-04T01:32:10.785Z,19
2022-12-04T02:04:10.822Z,18
2022-12-04T02:21:10.806Z,17
2022-12-04T03:04:10.622Z,18
2022-12-04T04:30:10.927Z,13
2022-12-04T05:31:10.951Z,12
2022-12-04T06:26:32.436Z,14
2022-12-04T06:50:10.662Z,12
2022-12-04T07:12:10.671Z,12
2022-12-04T08:10:10.615Z,11
2022-12-04T08:34:11.384Z,11
2022-12-04T09:35:10.682Z,13
2022-12-04T10:05:10.607Z,13
2022-12-04T10:38:10.618Z,13
2022-12-04T10:59:10.610Z,13
2022-12-04T11:01:10.743Z,13
2022-12-04T11:17:10.934Z,13
2022-12-04T11:47:32.442Z,14
2022-12-04T11:56:10.658Z,13
2022-12-04T12:08:10.842Z,13
2022-12-04T12:21:10.620Z,12
2022-12-04T12:58:10.606Z,12
2022-12-04T13:00:10.639Z,12
2022-12-04T13:14:10.608Z,11
2022-12-04T13:21:10.610Z,12
2022-12-04T13:28:10.624Z,15
2022-12-04T13:29:10.613Z,14
2022-12-04T13:40:11.243Z,12
2022-12-04T13:50:10.779Z,11
2022-12-04T13:54:10.651Z,10
2022-12-04T14:00:10.627Z,11
2022-12-04T14:08:10.667Z,11
2022-12-04T14:15:10.621Z,10
2022-12-04T14:16:10.615Z,10
2022-12-04T14:22:10.614Z,10
2022-12-04T14:29:10.618Z,10
2022-12-04T14:31:10.699Z,9
2022-12-04T14:38:10.607Z,10
2022-12-04T14:47:14.921Z,12
2022-12-04T14:52:10.603Z,12
2022-12-04T14:55:10.619Z,11
2022-12-04T15:02:10.623Z,13
2022-12-04T15:10:10.840Z,12
2022-12-04T15:14:10.634Z,11
2022-12-04T15:20:10.655Z,13
2022-12-04T15:26:11.953Z,12
2022-12-04T15:27:10.617Z,11
2022-12-04T15:28:10.616Z,12
2022-12-04T15:32:10.606Z,13
2022-12-04T15:33:10.622Z,12
2022-12-04T15:34:10.623Z,13
2022-12-04T15:38:10.609Z,13
2022-12-04T15:41:10.607Z,13
2022-12-04T15:48:10.607Z,13
2022-12-04T16:00:10.661Z,15
2022-12-04T16:02:10.713Z,15
2022-12-04T16:04:10.628Z,16
2022-12-04T16:05:10.604Z,15
2022-12-04T16:07:10.627Z,16
2022-12-04T16:09:10.670Z,16
2022-12-04T16:10:10.604Z,16
2022-12-04T16:11:10.610Z,16
2022-12-04T16:12:10.605Z,16
2022-12-04T16:14:10.607Z,17
2022-12-04T16:15:10.641Z,17
2022-12-04T16:17:10.984Z,17
2022-12-04T16:18:10.607Z,17
2022-12-04T16:20:10.609Z,16
2022-12-04T16:23:10.663Z,17
2022-12-04T16:27:10.694Z,15
2022-12-04T16:30:10.605Z,16
2022-12-04T16:32:10.604Z,17
2022-12-04T16:34:10.614Z,17
2022-12-04T16:35:10.636Z,16
2022-12-04T16:36:10.607Z,16
2022-12-04T16:37:10.672Z,17
2022-12-04T16:38:10.604Z,16
2022-12-04T16:39:10.612Z,16
2022-12-04T16:40:10.603Z,17
2022-12-04T16:41:10.618Z,17
2022-12-04T16:44:10.644Z,17
2022-12-04T16:47:10.649Z,16
2022-12-04T16:48:10.606Z,17
2022-12-04T16:49:10.610Z,17
2022-12-04T16:51:10.653Z,16
2022-12-04T16:52:10.606Z,17
2022-12-04T16:53:10.604Z,17
2022-12-04T16:54:10.613Z,16
2022-12-04T16:55:10.609Z,16
2022-12-04T16:56:10.611Z,16
2022-12-04T16:58:10.614Z,17
2022-12-04T16:59:12.218Z,17
2022-12-04T17:00:10.615Z,16
2022-12-04T17:01:10.607Z,15
2022-12-04T17:02:10.684Z,15
2022-12-04T17:05:10.620Z,17
2022-12-04T17:06:10.612Z,17
2022-12-04T17:07:10.605Z,18
2022-12-04T17:08:32.421Z,17
2022-12-04T17:09:10.616Z,18
2022-12-04T17:10:10.610Z,17
2022-12-04T17:11:10.605Z,17
2022-12-04T17:13:10.608Z,16
2022-12-04T17:14:10.609Z,17
2022-12-04T17:15:10.615Z,17
2022-12-04T17:16:14.050Z,17
2022-12-04T17:17:10.639Z,18
2022-12-04T17:18:13.884Z,18
2022-12-04T17:19:10.667Z,17
2022-12-04T17:20:10.613Z,16
2022-12-04T17:21:10.609Z,17
2022-12-04T17:22:10.641Z,18
2022-12-04T17:23:10.609Z,17
2022-12-04T17:24:10.619Z,17
2022-12-04T17:25:10.630Z,16
2022-12-04T17:26:10.659Z,17
2022-12-04T17:27:10.607Z,17
2022-12-04T17:28:10.614Z,16
2022-12-04T17:29:10.607Z,15
2022-12-04T17:30:10.610Z,17
2022-12-04T17:31:10.665Z,16
2022-12-04T17:32:10.613Z,17
2022-12-04T17:33:10.643Z,16
2022-12-04T17:34:10.606Z,17
2022-12-04T17:35:10.614Z,16
2022-12-04T17:36:10.608Z,16
2022-12-04T17:37:10.613Z,16
2022-12-04T17:38:10.609Z,16
2022-12-04T17:39:10.610Z,17
2022-12-04T17:40:10.614Z,17
2022-12-04T17:41:10.633Z,17
2022-12-04T17:42:10.606Z,17
2022-12-04T17:43:10.613Z,16
2022-12-04T17:44:10.607Z,17
2022-12-04T17:45:10.619Z,16
2022-12-04T17:46:10.727Z,16
2022-12-04T17:47:10.692Z,16
2022-12-04T17:48:10.615Z,18
2022-12-04T17:49:10.613Z,17
2022-12-04T17:50:10.613Z,16
2022-12-04T17:51:10.619Z,18
2022-12-04T17:52:10.611Z,18
2022-12-04T17:53:10.645Z,16
2022-12-04T17:54:10.621Z,17
2022-12-04T17:55:10.620Z,18
2022-12-04T17:56:10.615Z,18
2022-12-04T17:57:10.620Z,18
2022-12-04T17:58:10.611Z,18
2022-12-04T17:59:10.610Z,17
2022-12-04T18:00:10.612Z,18
2022-12-04T18:01:10.741Z,18
2022-12-04T18:02:10.610Z,18
2022-12-04T18:03:10.659Z,18
2022-12-04T18:04:10.628Z,20
2022-12-04T18:05:10.626Z,17
2022-12-04T18:06:10.682Z,19
2022-12-04T18:07:10.606Z,18
2022-12-04T18:09:10.649Z,19
2022-12-04T18:10:10.609Z,21
2022-12-04T18:11:10.675Z,21
2022-12-04T18:12:10.611Z,22
2022-12-04T18:13:10.614Z,19
2022-12-04T18:14:12.539Z,18
2022-12-04T18:15:10.618Z,20
2022-12-04T18:16:10.648Z,19
2022-12-04T18:17:10.607Z,21
2022-12-04T18:18:10.609Z,20
2022-12-04T18:19:10.621Z,21
2022-12-04T18:20:11.091Z,20
2022-12-04T18:21:10.612Z,20
2022-12-04T18:22:10.620Z,20
2022-12-04T18:23:10.617Z,19
2022-12-04T18:24:10.618Z,20
2022-12-04T18:25:10.620Z,21
2022-12-04T18:26:10.623Z,20
2022-12-04T18:27:10.615Z,20
2022-12-04T18:28:10.613Z,21
2022-12-04T18:29:10.612Z,21
2022-12-04T18:30:10.611Z,21
2022-12-04T18:31:10.679Z,21
2022-12-04T18:32:10.656Z,21
2022-12-04T18:33:14.808Z,21
2022-12-04T18:34:10.616Z,22
2022-12-04T18:35:10.614Z,20
2022-12-04T18:36:10.626Z,20
2022-12-04T18:37:10.613Z,21
2022-12-04T18:38:10.617Z,20
2022-12-04T18:39:10.619Z,20
2022-12-04T18:40:10.640Z,21
2022-12-04T18:41:10.616Z,22
2022-12-04T18:42:10.624Z,20
2022-12-04T18:43:10.628Z,19
2022-12-04T18:44:10.633Z,20
2022-12-04T18:45:10.619Z,20
2022-12-04T18:46:10.659Z,21
2022-12-04T18:47:10.621Z,20
2022-12-04T18:48:10.618Z,19
2022-12-04T18:49:10.618Z,23
2022-12-04T18:50:10.618Z,20
2022-12-04T18:51:10.618Z,20
2022-12-04T18:52:10.627Z,21
2022-12-04T18:53:10.625Z,20
2022-12-04T18:54:10.627Z,20
2022-12-04T18:55:10.621Z,21
2022-12-04T18:56:10.615Z,21
2022-12-04T18:57:10.625Z,21
2022-12-04T18:58:10.622Z,20
2022-12-04T18:59:10.617Z,20
2022-12-04T19:00:10.618Z,22
2022-12-04T19:01:10.652Z,21
2022-12-04T19:02:10.676Z,20
2022-12-04T19:03:10.615Z,21
2022-12-04T19:04:10.619Z,21
2022-12-04T19:05:10.614Z,22
2022-12-04T19:06:10.694Z,21
2022-12-04T19:07:10.619Z,20
2022-12-04T19:08:10.755Z,19
2022-12-04T19:09:10.622Z,20
2022-12-04T19:10:11.431Z,21
2022-12-04T19:11:10.647Z,20
2022-12-04T19:12:10.616Z,21
2022-12-04T19:13:10.633Z,22
2022-12-04T19:14:20.822Z,21
2022-12-04T19:15:10.623Z,21
2022-12-04T19:16:10.692Z,21
2022-12-04T19:17:10.622Z,19
2022-12-04T19:18:10.618Z,19
2022-12-04T19:19:10.625Z,21
2022-12-04T19:20:10.623Z,22
2022-12-04T19:21:10.627Z,20
2022-12-04T19:22:10.628Z,21
2022-12-04T19:23:10.642Z,19
2022-12-04T19:24:10.622Z,21
2022-12-04T19:25:10.649Z,20
2022-12-04T19:26:10.627Z,22
2022-12-04T19:27:10.620Z,21
2022-12-04T19:28:10.618Z,20
2022-12-04T19:29:10.622Z,21
2022-12-04T19:30:10.627Z,21
2022-12-04T19:32:10.676Z,22
2022-12-04T19:33:10.622Z,22
2022-12-04T19:34:10.624Z,21
2022-12-04T19:35:10.624Z,22
2022-12-04T19:36:10.617Z,21
2022-12-04T19:37:10.635Z,21
2022-12-04T19:38:10.620Z,21
2022-12-04T19:39:10.633Z,22
2022-12-04T19:40:10.622Z,22
2022-12-04T19:41:10.624Z,23
2022-12-04T19:42:11.312Z,22
2022-12-04T19:43:10.634Z,21
2022-12-04T19:44:40.260Z,21
2022-12-04T19:45:10.628Z,21
2022-12-04T19:46:10.695Z,21
2022-12-04T19:47:10.618Z,21
2022-12-04T19:48:10.625Z,22
2022-12-04T19:49:10.619Z,21
2022-12-04T19:50:10.627Z,19
2022-12-04T19:51:10.624Z,20
2022-12-04T19:52:10.629Z,21
2022-12-04T19:53:10.619Z,20
2022-12-04T19:54:10.624Z,22
2022-12-04T19:55:10.629Z,21
2022-12-04T19:56:10.628Z,19
2022-12-04T19:57:10.623Z,20
2022-12-04T19:58:10.631Z,21
2022-12-04T19:59:10.645Z,21
2022-12-04T20:00:10.624Z,20
2022-12-04T20:01:10.713Z,21
2022-12-04T20:02:10.669Z,21
2022-12-04T20:03:10.627Z,20
2022-12-04T20:04:10.697Z,21
2022-12-04T20:05:10.629Z,20
2022-12-04T20:06:10.635Z,21
2022-12-04T20:07:10.626Z,21
2022-12-04T23:53:14.380Z,19
